createdAt,value
2022-08-31T00:00:30.511Z,59.09
2022-08-31T00:03:15.837Z,59.35
2022-08-31T00:05:43.148Z,59.57
2022-08-31T00:08:09.800Z,59.47
2022-08-31T00:10:40.878Z,59.66
2022-08-31T00:13:10.000Z,59.30
2022-08-31T00:15:36.922Z,59.71
2022-08-31T00:18:04.653Z,59.73
2022-08-31T00:20:33.588Z,59.99
2022-08-31T00:23:07.571Z,59.91
2022-08-31T00:25:35.190Z,60.01
2022-08-31T00:28:02.706Z,60.08
2022-08-31T00:30:30.678Z,60.02
2022-08-31T00:32:58.534Z,59.96
2022-08-31T00:35:30.564Z,59.95
2022-08-31T00:37:57.459Z,60.19
2022-08-31T00:40:25.340Z,60.34
2022-08-31T00:42:52.605Z,60.18
2022-08-31T00:45:19.492Z,60.26
2022-08-31T00:47:46.249Z,60.09
2022-08-31T00:50:15.250Z,60.34
2022-08-31T00:52:45.696Z,60.02
2022-08-31T00:55:26.677Z,60.01
2022-08-31T00:57:56.322Z,59.86
2022-08-31T01:00:25.750Z,60.17
2022-08-31T01:02:53.194Z,60.34
2022-08-31T01:05:21.243Z,60.68
2022-08-31T01:07:48.626Z,60.38
2022-08-31T01:10:17.376Z,60.80
2022-08-31T01:12:45.620Z,60.64
2022-08-31T01:15:13.028Z,60.62
2022-08-31T01:17:41.277Z,60.75
2022-08-31T01:20:32.275Z,60.94
2022-08-31T01:23:05.902Z,61.11
2022-08-31T01:25:35.179Z,60.97
2022-08-31T01:28:05.037Z,60.59
2022-08-31T01:30:32.522Z,60.98
2022-08-31T01:32:59.563Z,60.61
2022-08-31T01:35:26.788Z,60.27
2022-08-31T01:37:54.106Z,60.41
2022-08-31T01:40:21.096Z,59.97
2022-08-31T01:42:47.959Z,60.01
2022-08-31T01:45:15.410Z,60.69
2022-08-31T01:47:42.316Z,61.47
2022-08-31T01:50:09.911Z,61.63
2022-08-31T01:52:37.987Z,61.39
2022-08-31T01:55:07.242Z,61.45
2022-08-31T01:57:34.777Z,61.05
2022-08-31T02:00:37.166Z,60.66
2022-08-31T02:03:07.794Z,60.55
2022-08-31T02:05:36.610Z,60.45
2022-08-31T02:08:05.717Z,60.59
2022-08-31T02:10:32.754Z,60.90
2022-08-31T02:13:00.229Z,60.88
2022-08-31T02:15:29.931Z,60.58
2022-08-31T02:17:56.801Z,60.57
2022-08-31T02:20:23.968Z,60.92
2022-08-31T02:22:51.144Z,60.52
2022-08-31T02:25:18.196Z,60.40
2022-08-31T02:27:45.861Z,60.28
2022-08-31T02:30:19.166Z,60.65
2022-08-31T02:32:45.905Z,60.40
2022-08-31T02:35:13.107Z,60.36
2022-08-31T02:37:39.856Z,60.20
2022-08-31T02:40:12.090Z,60.60
2022-08-31T02:42:53.540Z,60.21
2022-08-31T02:45:24.676Z,60.72
2022-08-31T02:47:54.241Z,60.33
2022-08-31T02:50:28.129Z,60.41
2022-08-31T02:52:56.758Z,60.48
2022-08-31T02:55:25.154Z,60.36
2022-08-31T02:57:52.300Z,60.73
2022-08-31T03:00:21.594Z,60.80
2022-08-31T03:02:48.724Z,60.43
2022-08-31T03:05:15.670Z,60.73
2022-08-31T03:07:42.626Z,60.84
2022-08-31T03:10:13.529Z,61.06
2022-08-31T03:12:40.498Z,60.80
2022-08-31T03:15:11.106Z,60.44
2022-08-31T03:17:38.291Z,60.79
2022-08-31T03:20:07.737Z,60.56
2022-08-31T03:22:34.660Z,60.37
2022-08-31T03:25:05.490Z,60.68
2022-08-31T03:27:32.325Z,60.47
2022-08-31T03:30:00.447Z,60.57
2022-08-31T03:32:31.343Z,60.21
2022-08-31T03:34:59.930Z,60.47
2022-08-31T03:37:27.340Z,60.52
2022-08-31T03:39:58.026Z,60.35
2022-08-31T03:42:25.575Z,60.01
2022-08-31T03:44:54.285Z,60.29
2022-08-31T03:47:28.373Z,60.38
2022-08-31T03:49:59.373Z,60.36
2022-08-31T03:52:56.541Z,60.15
2022-08-31T03:55:25.329Z,60.26
2022-08-31T03:57:52.989Z,60.08
2022-08-31T04:00:19.867Z,60.16
2022-08-31T04:02:57.331Z,60.37
2022-08-31T04:05:31.768Z,60.21
2022-08-31T04:08:07.419Z,60.33
2022-08-31T04:10:53.780Z,60.62
2022-08-31T04:13:40.177Z,60.25
2022-08-31T04:16:36.877Z,60.17
2022-08-31T04:19:22.319Z,60.11
2022-08-31T04:22:00.823Z,60.48
2022-08-31T04:24:29.458Z,60.15
2022-08-31T04:26:56.182Z,60.17
2022-08-31T04:29:23.712Z,60.10
2022-08-31T04:31:50.433Z,60.15
2022-08-31T04:34:17.200Z,60.09
2022-08-31T04:36:46.897Z,60.37
2022-08-31T04:39:14.844Z,60.40
2022-08-31T04:41:43.900Z,60.59
2022-08-31T04:44:16.439Z,60.44
2022-08-31T04:49:49.064Z,59.96
2022-08-31T04:52:16.472Z,60.05
2022-08-31T04:54:43.465Z,60.17
2022-08-31T04:57:10.816Z,60.41
2022-08-31T04:59:37.671Z,60.40
2022-08-31T05:02:24.851Z,60.05
2022-08-31T05:05:01.151Z,60.18
2022-08-31T05:07:28.496Z,59.74
2022-08-31T05:09:58.165Z,59.77
2022-08-31T05:12:24.983Z,60.51
2022-08-31T05:14:52.688Z,60.26
2022-08-31T05:17:23.921Z,60.27
2022-08-31T05:19:52.339Z,60.46
2022-08-31T05:22:19.233Z,60.33
2022-08-31T05:24:51.641Z,60.14
2022-08-31T05:33:38.883Z,59.90
2022-08-31T05:36:06.491Z,60.04
2022-08-31T05:38:34.842Z,60.05
2022-08-31T05:41:04.422Z,60.12
2022-08-31T05:43:31.104Z,60.02
2022-08-31T05:45:57.953Z,60.45
2022-08-31T05:48:30.114Z,60.55
2022-08-31T05:51:01.209Z,60.43
2022-08-31T05:53:28.186Z,60.15
2022-08-31T05:56:10.621Z,60.17
2022-08-31T05:58:38.974Z,59.96
2022-08-31T06:01:15.986Z,59.91
2022-08-31T06:04:03.361Z,60.05
2022-08-31T06:06:30.309Z,59.73
2022-08-31T06:08:57.878Z,59.62
2022-08-31T06:11:28.247Z,59.49
2022-08-31T06:13:58.242Z,59.60
2022-08-31T06:16:26.394Z,59.21
2022-08-31T06:18:55.630Z,59.19
2022-08-31T06:21:26.293Z,59.44
2022-08-31T06:23:57.183Z,59.46
2022-08-31T06:26:26.840Z,59.58
2022-08-31T06:28:56.861Z,59.11
2022-08-31T06:31:31.442Z,58.81
2022-08-31T06:33:59.284Z,58.86
2022-08-31T06:36:49.758Z,58.51
2022-08-31T06:39:37.179Z,58.39
2022-08-31T06:42:22.537Z,58.75
2022-08-31T06:44:59.306Z,59.31
2022-08-31T06:47:38.162Z,59.59
2022-08-31T06:50:06.254Z,59.56
2022-08-31T06:52:38.248Z,59.23
2022-08-31T06:55:16.610Z,59.22
2022-08-31T06:57:52.595Z,58.89
2022-08-31T07:00:37.990Z,58.96
2022-08-31T07:03:34.452Z,58.59
2022-08-31T07:06:22.866Z,58.44
2022-08-31T07:08:52.296Z,58.63
2022-08-31T07:11:26.113Z,58.44
2022-08-31T07:13:55.090Z,58.60
2022-08-31T07:16:24.249Z,58.19
2022-08-31T07:18:52.459Z,58.29
2022-08-31T07:21:25.751Z,58.03
2022-08-31T07:23:54.061Z,57.53
2022-08-31T07:26:27.807Z,57.77
2022-08-31T07:28:56.646Z,57.60
2022-08-31T07:31:30.352Z,57.66
2022-08-31T07:33:57.312Z,57.91
2022-08-31T07:36:26.301Z,58.17
2022-08-31T07:39:24.581Z,57.76
2022-08-31T07:42:09.297Z,58.23
2022-08-31T07:44:36.385Z,57.96
2022-08-31T07:47:04.259Z,57.99
2022-08-31T07:49:31.188Z,57.96
2022-08-31T07:52:28.786Z,57.98
2022-08-31T07:55:23.720Z,57.78
2022-08-31T07:57:58.952Z,57.80
2022-08-31T08:00:28.477Z,57.92
2022-08-31T08:02:55.622Z,57.88
2022-08-31T08:05:29.238Z,58.27
2022-08-31T08:08:29.958Z,58.23
2022-08-31T08:11:18.302Z,58.19
2022-08-31T08:13:54.333Z,58.18
2022-08-31T08:16:29.331Z,58.07
2022-08-31T08:19:06.270Z,57.61
2022-08-31T08:21:33.056Z,57.69
2022-08-31T08:24:00.584Z,57.63
2022-08-31T08:26:45.571Z,57.70
2022-08-31T08:29:25.187Z,57.49
2022-08-31T08:31:56.192Z,57.47
2022-08-31T08:34:32.475Z,56.84
2022-08-31T08:37:01.904Z,56.82
2022-08-31T08:39:29.878Z,56.79
2022-08-31T08:42:11.056Z,56.48
2022-08-31T08:44:38.433Z,56.25
2022-08-31T08:47:08.075Z,56.04
2022-08-31T08:49:54.230Z,56.14
2022-08-31T08:52:41.631Z,55.82
2022-08-31T08:55:16.371Z,55.56
2022-08-31T08:57:46.061Z,55.63
2022-08-31T09:00:20.601Z,55.56
2022-08-31T09:03:01.121Z,55.55
2022-08-31T09:06:09.971Z,55.33
2022-08-31T09:08:59.622Z,55.29
2022-08-31T09:11:42.112Z,55.17
2022-08-31T09:14:28.554Z,54.77
2022-08-31T09:17:07.919Z,54.71
2022-08-31T09:19:54.685Z,54.77
2022-08-31T09:22:21.622Z,54.15
2022-08-31T09:24:53.067Z,54.20
2022-08-31T09:27:46.887Z,54.01
2022-08-31T09:30:32.967Z,54.08
2022-08-31T09:33:00.407Z,53.78
2022-08-31T09:35:40.403Z,53.39
2022-08-31T09:38:12.528Z,53.13
2022-08-31T09:40:47.937Z,52.78
2022-08-31T09:43:25.608Z,52.39
2022-08-31T09:46:21.354Z,52.62
2022-08-31T09:48:58.751Z,52.18
2022-08-31T09:51:34.942Z,52.13
2022-08-31T09:54:37.293Z,51.70
2022-08-31T09:57:09.130Z,51.38
2022-08-31T09:59:44.162Z,51.17
2022-08-31T10:02:23.231Z,50.46
2022-08-31T10:04:54.740Z,50.64
2022-08-31T10:07:28.919Z,50.66
2022-08-31T10:10:06.208Z,50.56
2022-08-31T10:12:49.672Z,50.33
2022-08-31T10:15:43.785Z,49.55
2022-08-31T10:18:38.360Z,49.53
2022-08-31T10:21:16.425Z,48.86
2022-08-31T10:23:54.444Z,48.76
2022-08-31T10:26:36.649Z,48.88
2022-08-31T10:29:08.378Z,48.74
2022-08-31T10:31:48.558Z,48.15
2022-08-31T10:34:43.930Z,48.64
2022-08-31T10:37:25.275Z,48.47
2022-08-31T10:39:55.128Z,48.21
2022-08-31T10:42:26.943Z,48.21
2022-08-31T10:44:57.270Z,48.18
2022-08-31T10:47:33.255Z,47.80
2022-08-31T10:50:03.716Z,47.50
2022-08-31T10:52:34.301Z,46.91
2022-08-31T10:55:06.732Z,46.81
2022-08-31T10:57:44.521Z,46.95
2022-08-31T11:00:40.044Z,46.86
2022-08-31T11:03:13.265Z,45.57
2022-08-31T11:05:51.170Z,45.45
2022-08-31T11:08:59.752Z,45.62
2022-08-31T11:11:50.166Z,45.01
2022-08-31T11:14:36.655Z,44.84
2022-08-31T11:17:34.559Z,44.60
2022-08-31T11:20:39.928Z,43.65
2022-08-31T11:23:15.829Z,43.15
2022-08-31T11:26:16.973Z,43.51
2022-08-31T11:28:49.575Z,43.28
2022-08-31T11:31:24.249Z,43.38
2022-08-31T11:34:15.958Z,42.88
2022-08-31T11:36:50.475Z,43.19
2022-08-31T11:39:36.248Z,42.76
2022-08-31T11:42:19.237Z,43.02
2022-08-31T11:44:59.353Z,42.94
2022-08-31T11:47:29.954Z,42.85
2022-08-31T11:50:33.233Z,42.14
2022-08-31T11:53:02.002Z,42.03
2022-08-31T11:55:30.529Z,42.20
2022-08-31T11:58:06.226Z,41.88
2022-08-31T12:00:44.017Z,41.21
2022-08-31T12:03:37.146Z,41.10
2022-08-31T12:06:05.813Z,40.31
2022-08-31T12:08:35.068Z,40.76
2022-08-31T12:11:41.872Z,40.60
2022-08-31T12:14:14.321Z,40.60
2022-08-31T12:16:44.890Z,40.46
2022-08-31T12:20:01.669Z,39.76
2022-08-31T12:23:06.062Z,39.98
2022-08-31T12:25:59.928Z,39.51
2022-08-31T12:28:55.090Z,39.09
2022-08-31T12:31:21.873Z,39.45
2022-08-31T12:34:03.761Z,39.02
2022-08-31T12:36:35.219Z,38.79
2022-08-31T12:39:07.363Z,38.99
2022-08-31T12:41:34.200Z,38.88
2022-08-31T12:44:03.855Z,39.48
2022-08-31T12:46:33.895Z,39.30
2022-08-31T12:49:09.495Z,39.65
2022-08-31T12:51:36.255Z,39.77
2022-08-31T12:54:06.009Z,40.06
2022-08-31T12:57:02.110Z,40.08
2022-08-31T12:59:57.444Z,40.28
2022-08-31T13:02:25.052Z,39.85
2022-08-31T13:04:52.038Z,39.97
2022-08-31T13:07:21.613Z,39.55
2022-08-31T13:10:04.181Z,39.83
2022-08-31T13:12:31.097Z,39.83
2022-08-31T13:14:57.916Z,39.75
2022-08-31T13:17:24.769Z,39.81
2022-08-31T13:19:55.469Z,39.16
2022-08-31T13:22:44.721Z,39.64
2022-08-31T13:25:42.782Z,39.12
2022-08-31T13:28:15.507Z,38.63
2022-08-31T13:30:56.374Z,38.35
2022-08-31T13:33:27.110Z,38.51
2022-08-31T13:36:32.557Z,38.58
2022-08-31T13:39:25.561Z,39.03
2022-08-31T13:42:08.891Z,38.57
2022-08-31T13:44:39.907Z,38.35
2022-08-31T13:47:31.945Z,38.43
2022-08-31T13:50:13.706Z,38.01
2022-08-31T13:53:04.136Z,38.09
2022-08-31T13:55:43.726Z,37.80
2022-08-31T13:58:26.830Z,37.04
2022-08-31T14:01:19.470Z,37.00
2022-08-31T14:03:52.083Z,36.95
2022-08-31T14:06:35.084Z,36.64
2022-08-31T14:09:16.640Z,36.10
2022-08-31T14:11:53.969Z,36.09
2022-08-31T14:14:29.969Z,35.85
2022-08-31T14:16:58.286Z,36.43
2022-08-31T14:19:33.050Z,36.84
2022-08-31T14:22:25.549Z,37.04
2022-08-31T14:24:52.288Z,37.06
2022-08-31T14:27:18.934Z,37.59
2022-08-31T14:29:46.162Z,37.51
2022-08-31T14:32:13.207Z,37.26
2022-08-31T14:34:47.157Z,37.64
2022-08-31T14:37:19.803Z,37.89
2022-08-31T14:39:50.625Z,37.77
2022-08-31T14:42:31.003Z,37.64
2022-08-31T14:45:05.498Z,37.53
2022-08-31T14:47:44.076Z,37.51
2022-08-31T14:50:14.024Z,37.33
2022-08-31T14:52:46.467Z,37.41
2022-08-31T14:55:14.269Z,37.54
2022-08-31T14:57:45.682Z,37.80
2022-08-31T15:00:15.076Z,38.03
2022-08-31T15:02:42.065Z,37.80
2022-08-31T15:05:09.773Z,37.85
2022-08-31T15:07:39.376Z,37.20
2022-08-31T15:10:08.793Z,37.24
2022-08-31T15:12:35.834Z,37.34
2022-08-31T15:15:02.994Z,37.12
2022-08-31T15:17:33.681Z,37.34
2022-08-31T15:20:03.235Z,37.32
2022-08-31T15:22:31.401Z,37.50
2022-08-31T15:24:58.363Z,37.52
2022-08-31T15:27:28.871Z,37.38
2022-08-31T15:30:02.498Z,37.00
2022-08-31T15:32:29.312Z,36.30
2022-08-31T15:34:58.854Z,33.36
2022-08-31T15:37:31.905Z,28.37
2022-08-31T15:40:00.951Z,24.12
2022-08-31T15:42:29.373Z,21.66
2022-08-31T15:44:56.880Z,20.12
2022-08-31T15:47:48.219Z,19.18
2022-08-31T15:50:19.217Z,17.59
2022-08-31T15:52:50.973Z,16.23
2022-08-31T15:55:26.437Z,15.74
2022-08-31T15:57:55.125Z,15.61
2022-08-31T16:00:27.015Z,15.02
2022-08-31T16:02:57.458Z,14.75
2022-08-31T16:05:28.471Z,14.89
2022-08-31T16:07:55.670Z,14.58
2022-08-31T16:10:23.388Z,14.18
2022-08-31T16:12:52.156Z,13.95
2022-08-31T16:15:21.286Z,13.76
2022-08-31T16:17:51.413Z,13.73
2022-08-31T16:20:18.123Z,13.51
2022-08-31T16:22:45.554Z,13.54
2022-08-31T16:25:14.315Z,13.64
2022-08-31T16:27:43.481Z,13.46
2022-08-31T16:30:12.220Z,13.71
2022-08-31T16:32:39.459Z,13.54
2022-08-31T16:35:06.954Z,13.52
2022-08-31T16:37:33.853Z,14.59
2022-08-31T16:40:00.710Z,14.26
2022-08-31T16:42:28.046Z,15.14
2022-08-31T16:44:59.763Z,15.29
2022-08-31T16:47:29.092Z,15.30
2022-08-31T16:49:55.919Z,16.12
2022-08-31T16:52:26.551Z,18.64
2022-08-31T16:54:54.130Z,20.98
2022-08-31T16:57:26.995Z,22.66
2022-08-31T16:59:55.728Z,24.00
2022-08-31T17:02:23.775Z,24.97
2022-08-31T17:04:53.076Z,25.92
2022-08-31T17:07:23.651Z,26.56
2022-08-31T17:09:51.149Z,26.99
2022-08-31T17:12:21.790Z,27.93
2022-08-31T17:14:52.817Z,28.20
2022-08-31T17:17:24.939Z,29.19
2022-08-31T17:19:53.211Z,29.68
2022-08-31T17:22:29.904Z,30.56
2022-08-31T17:25:01.223Z,31.12
2022-08-31T17:27:27.975Z,32.30
2022-08-31T17:30:00.841Z,32.76
2022-08-31T17:32:28.391Z,33.99
2022-08-31T17:34:55.739Z,34.64
2022-08-31T17:37:31.514Z,34.62
2022-08-31T17:40:00.854Z,35.79
2022-08-31T17:42:28.695Z,36.57
2022-08-31T17:44:56.992Z,36.77
2022-08-31T17:47:25.291Z,37.28
2022-08-31T17:49:53.655Z,37.42
2022-08-31T17:52:21.648Z,37.74
2022-08-31T17:54:50.933Z,38.18
2022-08-31T17:57:22.316Z,38.89
2022-08-31T17:59:49.294Z,38.95
2022-08-31T18:02:21.589Z,39.37
2022-08-31T18:04:49.160Z,39.94
2022-08-31T18:07:16.414Z,40.42
2022-08-31T18:09:45.559Z,40.52
2022-08-31T18:12:14.479Z,41.15
2022-08-31T18:14:41.715Z,41.53
2022-08-31T18:17:11.728Z,42.04
2022-08-31T18:19:38.879Z,41.94
2022-08-31T18:22:06.792Z,42.63
2022-08-31T18:24:35.700Z,42.90
2022-08-31T18:27:07.187Z,42.76
2022-08-31T18:29:36.418Z,43.29
2022-08-31T18:32:05.240Z,43.46
2022-08-31T18:34:35.154Z,43.47
2022-08-31T18:37:02.248Z,43.98
2022-08-31T18:39:51.020Z,44.21
2022-08-31T18:42:38.061Z,44.77
2022-08-31T18:45:19.366Z,44.74
2022-08-31T18:48:23.822Z,45.46
2022-08-31T18:50:44.649Z,45.30
2022-08-31T18:53:15.081Z,45.56
2022-08-31T18:55:43.638Z,45.95
2022-08-31T18:58:10.614Z,46.54
2022-08-31T19:00:37.705Z,46.50
2022-08-31T19:03:04.926Z,46.83
2022-08-31T19:05:32.729Z,46.90
2022-08-31T19:08:00.305Z,46.91
2022-08-31T19:10:27.390Z,47.20
2022-08-31T19:12:57.153Z,47.44
2022-08-31T19:15:31.486Z,47.45
2022-08-31T19:18:03.413Z,47.35
2022-08-31T19:20:30.391Z,47.62
2022-08-31T19:22:57.209Z,47.93
2022-08-31T19:25:24.563Z,47.97
2022-08-31T19:27:52.119Z,48.35
2022-08-31T19:30:24.413Z,48.24
2022-08-31T19:32:53.601Z,48.34
2022-08-31T19:35:20.342Z,48.78
2022-08-31T19:37:49.719Z,48.58
2022-08-31T19:40:18.213Z,48.78
2022-08-31T19:43:41.814Z,48.85
2022-08-31T19:45:42.880Z,49.49
2022-08-31T19:48:11.938Z,49.68
2022-08-31T19:50:42.576Z,50.45
2022-08-31T19:53:12.552Z,50.36
2022-08-31T19:55:50.770Z,50.51
2022-08-31T19:58:26.204Z,50.61
2022-08-31T20:01:01.411Z,50.49
2022-08-31T20:03:31.828Z,50.24
2022-08-31T20:05:59.934Z,50.83
2022-08-31T20:08:26.764Z,50.93
2022-08-31T20:10:53.561Z,50.72
2022-08-31T20:13:22.956Z,51.29
2022-08-31T20:15:50.970Z,51.20
2022-08-31T20:18:17.889Z,51.51
2022-08-31T20:20:48.240Z,51.31
2022-08-31T20:23:17.281Z,51.47
2022-08-31T20:25:46.354Z,51.37
2022-08-31T20:28:13.470Z,52.11
2022-08-31T20:30:41.509Z,52.13
2022-08-31T20:33:09.667Z,51.96
2022-08-31T20:35:41.452Z,52.27
2022-08-31T20:38:11.946Z,52.03
2022-08-31T20:40:40.184Z,52.49
2022-08-31T20:43:11.556Z,52.45
2022-08-31T20:45:39.168Z,52.79
2022-08-31T20:48:24.670Z,52.67
2022-08-31T20:50:51.601Z,52.91
2022-08-31T20:53:38.951Z,52.74
2022-08-31T20:56:09.078Z,52.92
2022-08-31T20:58:35.837Z,53.16
2022-08-31T21:01:06.995Z,53.13
2022-08-31T21:03:34.687Z,53.27
2022-08-31T21:06:08.334Z,52.91
2022-08-31T21:08:38.349Z,52.97
2022-08-31T21:11:16.625Z,53.53
2022-08-31T21:13:44.747Z,53.47
2022-08-31T21:16:11.938Z,54.12
2022-08-31T21:18:40.504Z,53.82
2022-08-31T21:21:10.290Z,54.38
2022-08-31T21:23:38.584Z,54.33
2022-08-31T21:26:08.678Z,54.26
2022-08-31T21:28:38.573Z,53.98
2022-08-31T21:31:16.569Z,54.12
2022-08-31T21:34:00.453Z,54.49
2022-08-31T21:36:28.179Z,54.81
2022-08-31T21:38:57.120Z,55.01
2022-08-31T21:41:26.718Z,54.63
2022-08-31T21:43:55.045Z,54.61
2022-08-31T21:46:25.198Z,55.04
2022-08-31T21:48:53.077Z,55.30
2022-08-31T21:51:21.095Z,55.51
2022-08-31T21:53:51.709Z,55.44
2022-08-31T21:56:20.027Z,55.43
2022-08-31T21:58:47.717Z,55.24
2022-08-31T22:01:18.504Z,54.95
2022-08-31T22:03:47.324Z,55.32
2022-08-31T22:06:27.017Z,54.82
2022-08-31T22:08:57.555Z,55.07
2022-08-31T22:11:24.424Z,55.42
2022-08-31T22:13:53.138Z,55.01
2022-08-31T22:16:20.307Z,55.20
2022-08-31T22:19:06.738Z,55.35
2022-08-31T22:21:34.954Z,55.64
2022-08-31T22:24:05.619Z,55.50
2022-08-31T22:26:35.471Z,55.63
2022-08-31T22:29:02.502Z,55.53
2022-08-31T22:31:29.471Z,55.51
2022-08-31T22:33:57.226Z,55.28
2022-08-31T22:36:31.401Z,55.77
2022-08-31T22:39:03.865Z,55.54
2022-08-31T22:41:32.823Z,55.93
2022-08-31T22:44:00.254Z,55.45
2022-08-31T22:46:28.422Z,55.82
2022-08-31T22:48:55.668Z,55.85
2022-08-31T22:51:22.661Z,56.02
2022-08-31T22:53:51.730Z,55.97
2022-08-31T22:56:28.142Z,55.65
2022-08-31T22:58:57.563Z,55.46
2022-08-31T23:01:37.282Z,55.80
2022-08-31T23:04:06.873Z,56.05
2022-08-31T23:06:36.403Z,55.64
2022-08-31T23:09:05.412Z,55.74
2022-08-31T23:11:32.099Z,55.71
2022-08-31T23:13:58.850Z,55.59
2022-08-31T23:16:46.356Z,56.03
2022-08-31T23:19:19.815Z,55.89
2022-08-31T23:21:52.947Z,55.68
2022-08-31T23:24:28.658Z,55.90
2022-08-31T23:27:04.198Z,55.86
2022-08-31T23:29:51.349Z,56.14
2022-08-31T23:32:19.834Z,56.25
2022-08-31T23:34:49.729Z,56.24
2022-08-31T23:37:17.901Z,56.37
2022-08-31T23:39:46.250Z,56.22
2022-08-31T23:42:15.445Z,56.22
2022-08-31T23:44:43.870Z,56.21
2022-08-31T23:47:13.664Z,56.34
2022-08-31T23:49:42.380Z,56.25
2022-08-31T23:52:11.907Z,56.33
2022-08-31T23:54:39.417Z,56.67
2022-08-31T23:57:08.498Z,56.65
2022-08-31T23:59:53.202Z,56.35
